createdAt,value
2022-08-17T00:01:32.753Z,19.47
2022-08-17T00:04:19.066Z,19.47
2022-08-17T00:06:46.060Z,19.45
2022-08-17T00:09:18.977Z,19.43
2022-08-17T00:12:41.556Z,19.43
2022-08-17T00:14:35.045Z,19.45
2022-08-17T00:17:03.621Z,19.44
2022-08-17T00:19:29.989Z,19.47
2022-08-17T00:22:34.267Z,19.50
2022-08-17T00:24:46.797Z,19.53
2022-08-17T00:27:13.223Z,19.50
2022-08-17T00:29:39.686Z,19.43
2022-08-17T00:33:15.012Z,19.40
2022-08-17T00:34:53.101Z,19.37
2022-08-17T00:37:19.550Z,19.38
2022-08-17T00:39:46.081Z,19.38
2022-08-17T00:42:18.154Z,19.27
2022-08-17T00:44:45.746Z,19.44
2022-08-17T00:47:12.236Z,19.44
2022-08-17T00:49:38.654Z,19.45
2022-08-17T00:52:15.281Z,19.43
2022-08-17T00:54:44.774Z,19.52
2022-08-17T00:57:17.391Z,19.48
2022-08-17T00:59:51.145Z,19.47
2022-08-17T01:02:34.881Z,19.44
2022-08-17T01:05:12.417Z,19.42
2022-08-17T01:07:39.268Z,19.34
2022-08-17T01:10:58.228Z,19.25
2022-08-17T01:12:56.729Z,19.19
2022-08-17T01:15:23.380Z,19.07
2022-08-17T01:17:50.115Z,19.19
2022-08-17T01:20:16.887Z,19.21
2022-08-17T01:22:43.385Z,19.22
2022-08-17T01:25:12.707Z,19.15
2022-08-17T01:27:40.642Z,19.30
2022-08-17T01:30:57.329Z,19.20
2022-08-17T01:32:56.552Z,19.35
2022-08-17T01:35:22.996Z,19.41
2022-08-17T01:37:49.810Z,19.40
2022-08-17T01:40:31.184Z,19.38
2022-08-17T01:43:12.182Z,19.37
2022-08-17T01:45:45.717Z,19.45
2022-08-17T01:48:13.183Z,19.48
2022-08-17T01:50:42.787Z,19.49
2022-08-17T01:53:13.811Z,19.51
2022-08-17T01:55:45.678Z,19.53
2022-08-17T01:58:12.402Z,19.59
2022-08-17T02:00:59.353Z,19.77
2022-08-17T02:03:26.802Z,20.03
2022-08-17T02:05:53.350Z,20.12
2022-08-17T02:08:21.465Z,20.38
2022-08-17T02:11:11.378Z,20.39
2022-08-17T02:13:38.289Z,20.36
2022-08-17T02:16:04.731Z,20.29
2022-08-17T02:18:31.155Z,20.33
2022-08-17T02:20:57.613Z,20.19
2022-08-17T02:23:26.620Z,20.16
2022-08-17T02:25:57.612Z,20.07
2022-08-17T02:28:24.145Z,19.98
2022-08-17T02:31:02.254Z,19.92
2022-08-17T02:33:42.659Z,19.73
2022-08-17T02:36:11.995Z,19.67
2022-08-17T02:38:39.766Z,19.63
2022-08-17T02:41:06.653Z,19.68
2022-08-17T02:43:33.461Z,19.64
2022-08-17T02:45:59.983Z,19.66
2022-08-17T02:48:31.596Z,19.57
2022-08-17T02:50:59.674Z,19.53
2022-08-17T02:53:26.513Z,19.47
2022-08-17T02:55:53.384Z,19.08
2022-08-17T02:58:34.675Z,18.74
2022-08-17T03:01:03.559Z,18.45
2022-08-17T03:03:30.024Z,18.28
2022-08-17T03:05:56.514Z,18.27
2022-08-17T03:08:23.351Z,18.22
2022-08-17T03:10:50.417Z,18.28
2022-08-17T03:13:17.463Z,18.27
2022-08-17T03:15:45.803Z,18.20
2022-08-17T03:18:24.108Z,18.15
2022-08-17T03:20:55.850Z,18.04
2022-08-17T03:23:24.104Z,18.01
2022-08-17T03:25:53.786Z,17.86
2022-08-17T03:28:21.738Z,17.82
2022-08-17T03:30:48.301Z,17.74
2022-08-17T03:33:14.825Z,17.73
2022-08-17T03:35:41.443Z,17.72
2022-08-17T03:38:10.463Z,17.70
2022-08-17T03:40:56.361Z,17.68
2022-08-17T03:43:25.213Z,17.74
2022-08-17T03:46:28.943Z,17.79
2022-08-17T03:49:15.274Z,17.79
2022-08-17T03:52:00.563Z,17.74
2022-08-17T03:54:45.472Z,17.72
2022-08-17T03:57:12.485Z,17.67
2022-08-17T03:59:39.663Z,17.60
2022-08-17T04:02:22.764Z,17.40
2022-08-17T04:04:50.992Z,17.48
2022-08-17T04:07:19.833Z,17.44
2022-08-17T04:09:46.393Z,17.47
2022-08-17T04:12:16.107Z,17.43
2022-08-17T04:14:52.269Z,17.46
2022-08-17T04:17:21.625Z,17.51
2022-08-17T04:19:48.165Z,17.52
2022-08-17T04:22:31.232Z,17.60
2022-08-17T04:25:15.522Z,17.63
2022-08-17T04:27:41.983Z,17.56
2022-08-17T04:30:09.595Z,17.57
2022-08-17T04:33:05.865Z,17.52
2022-08-17T04:35:36.796Z,17.54
2022-08-17T04:38:03.727Z,17.54
2022-08-17T04:40:48.947Z,17.55
2022-08-17T04:43:18.974Z,17.58
2022-08-17T04:45:56.684Z,17.54
2022-08-17T04:48:36.063Z,17.68
2022-08-17T04:51:06.082Z,17.68
2022-08-17T04:53:32.587Z,17.68
2022-08-17T04:55:59.136Z,17.67
2022-08-17T04:58:25.584Z,17.69
2022-08-17T05:00:52.067Z,17.73
2022-08-17T05:03:18.729Z,17.77
2022-08-17T05:05:49.584Z,17.80
2022-08-17T05:08:19.123Z,17.84
2022-08-17T05:10:46.775Z,17.84
2022-08-17T05:13:16.966Z,17.82
2022-08-17T05:15:47.670Z,17.87
2022-08-17T05:18:15.538Z,17.88
2022-08-17T05:20:42.540Z,17.88
2022-08-17T05:23:13.725Z,17.76
2022-08-17T05:25:42.982Z,17.86
2022-08-17T05:28:14.418Z,17.90
2022-08-17T05:30:43.256Z,17.92
2022-08-17T05:33:16.537Z,17.89
2022-08-17T05:35:46.959Z,17.92
2022-08-17T05:38:16.089Z,17.89
2022-08-17T05:40:43.518Z,17.94
2022-08-17T05:43:13.123Z,17.95
2022-08-17T05:45:55.907Z,17.91
2022-08-17T05:48:39.524Z,17.97
2022-08-17T05:51:24.399Z,17.97
2022-08-17T05:54:06.108Z,17.95
2022-08-17T05:56:52.104Z,17.82
2022-08-17T05:59:40.381Z,17.97
2022-08-17T06:02:21.968Z,17.99
2022-08-17T06:05:14.305Z,17.95
2022-08-17T06:07:58.842Z,17.98
2022-08-17T06:10:43.803Z,17.97
2022-08-17T06:13:29.341Z,18.05
2022-08-17T06:16:05.007Z,18.04
2022-08-17T06:19:02.064Z,17.99
2022-08-17T06:21:34.303Z,17.97
2022-08-17T06:24:23.880Z,17.95
2022-08-17T06:26:51.006Z,17.96
2022-08-17T06:29:23.682Z,17.96
2022-08-17T06:31:50.973Z,18.00
2022-08-17T06:34:17.371Z,18.03
2022-08-17T06:36:55.753Z,18.00
2022-08-17T06:39:52.723Z,18.00
2022-08-17T06:42:59.919Z,17.98
2022-08-17T06:45:20.132Z,18.03
2022-08-17T06:47:59.341Z,18.04
2022-08-17T06:50:49.196Z,18.03
2022-08-17T06:53:27.335Z,18.06
2022-08-17T06:56:10.352Z,18.09
2022-08-17T06:58:40.117Z,18.07
2022-08-17T07:01:17.871Z,18.15
2022-08-17T07:03:54.742Z,18.17
2022-08-17T07:06:26.183Z,18.06
2022-08-17T07:09:08.222Z,18.11
2022-08-17T07:11:53.893Z,18.12
2022-08-17T07:14:37.953Z,18.05
2022-08-17T07:17:09.317Z,17.96
2022-08-17T07:19:40.640Z,17.93
2022-08-17T07:22:23.938Z,17.71
2022-08-17T07:25:02.343Z,17.80
2022-08-17T07:27:51.178Z,17.96
2022-08-17T07:30:23.002Z,17.94
2022-08-17T07:33:02.299Z,17.78
2022-08-17T07:35:37.731Z,17.90
2022-08-17T07:38:25.330Z,17.92
2022-08-17T07:41:05.939Z,17.94
2022-08-17T07:43:41.219Z,17.90
2022-08-17T07:46:42.177Z,17.95
2022-08-17T07:49:08.517Z,18.00
2022-08-17T07:51:50.453Z,17.80
2022-08-17T07:54:22.129Z,17.99
2022-08-17T07:56:52.418Z,17.75
2022-08-17T07:59:34.116Z,17.98
2022-08-17T08:02:06.318Z,18.05
2022-08-17T08:05:00.495Z,17.87
2022-08-17T08:07:52.244Z,18.02
2022-08-17T08:10:45.323Z,17.99
2022-08-17T08:13:23.273Z,17.97
2022-08-17T08:15:55.701Z,17.94
2022-08-17T08:18:54.966Z,17.91
2022-08-17T08:21:29.132Z,17.95
2022-08-17T08:24:17.802Z,17.91
2022-08-17T08:27:08.015Z,17.86
2022-08-17T08:30:04.813Z,17.81
2022-08-17T08:32:54.029Z,17.84
2022-08-17T08:35:37.241Z,17.89
2022-08-17T08:38:26.837Z,17.88
2022-08-17T08:41:16.468Z,17.91
2022-08-17T08:44:00.710Z,17.92
2022-08-17T08:46:47.099Z,17.82
2022-08-17T08:50:01.436Z,18.00
2022-08-17T08:52:39.953Z,17.99
2022-08-17T08:57:43.951Z,18.04
2022-08-17T09:00:24.546Z,18.16
2022-08-17T09:02:50.959Z,18.11
2022-08-17T09:05:56.005Z,18.21
2022-08-17T09:08:44.428Z,18.38
2022-08-17T09:11:26.534Z,18.45
2022-08-17T09:14:21.863Z,18.53
2022-08-17T09:17:12.622Z,18.45
2022-08-17T09:19:53.026Z,18.36
2022-08-17T09:22:31.597Z,18.29
2022-08-17T09:25:15.690Z,18.32
2022-08-17T09:27:57.277Z,18.35
2022-08-17T09:30:36.298Z,18.22
2022-08-17T09:33:07.975Z,18.19
2022-08-17T09:35:49.318Z,18.18
2022-08-17T09:38:21.653Z,18.19
2022-08-17T09:41:15.230Z,18.13
2022-08-17T09:43:53.599Z,18.15
2022-08-17T09:46:28.390Z,18.12
2022-08-17T09:49:07.244Z,18.11
2022-08-17T09:51:48.964Z,18.23
2022-08-17T09:54:44.619Z,18.29
2022-08-17T09:57:32.206Z,18.35
2022-08-17T10:00:17.367Z,18.36
2022-08-17T10:03:21.803Z,18.33
2022-08-17T10:06:10.027Z,18.29
2022-08-17T10:08:52.524Z,18.22
2022-08-17T10:11:48.421Z,18.40
2022-08-17T10:14:44.537Z,18.36
2022-08-17T10:17:24.581Z,18.34
2022-08-17T10:20:20.896Z,18.36
2022-08-17T10:23:13.103Z,18.39
2022-08-17T10:26:04.150Z,18.33
2022-08-17T10:28:38.938Z,18.36
2022-08-17T10:31:33.892Z,18.33
2022-08-17T10:34:28.803Z,18.36
2022-08-17T10:37:14.252Z,18.40
2022-08-17T10:39:52.936Z,18.43
2022-08-17T10:42:33.093Z,18.44
2022-08-17T10:45:06.947Z,18.45
2022-08-17T10:48:05.082Z,18.54
2022-08-17T10:51:01.548Z,18.62
2022-08-17T10:53:38.744Z,18.66
2022-08-17T10:56:13.118Z,18.63
2022-08-17T10:58:55.914Z,18.65
2022-08-17T11:02:04.332Z,18.59
2022-08-17T11:04:36.760Z,18.64
2022-08-17T11:07:13.551Z,18.61
2022-08-17T11:10:17.564Z,18.58
2022-08-17T11:12:52.530Z,18.63
2022-08-17T11:15:42.082Z,18.69
2022-08-17T11:18:38.051Z,18.70
2022-08-17T11:21:25.639Z,18.69
2022-08-17T11:24:18.952Z,18.72
2022-08-17T11:27:02.594Z,18.71
2022-08-17T11:29:56.743Z,18.73
2022-08-17T11:32:47.690Z,18.78
2022-08-17T11:35:31.447Z,18.72
2022-08-17T11:38:17.337Z,18.83
2022-08-17T11:41:02.751Z,18.85
2022-08-17T11:43:49.019Z,18.91
2022-08-17T11:46:51.677Z,18.98
2022-08-17T11:50:01.611Z,18.87
2022-08-17T11:52:47.213Z,18.94
2022-08-17T11:55:36.372Z,19.02
2022-08-17T11:58:23.743Z,19.02
2022-08-17T12:00:57.168Z,18.90
2022-08-17T12:03:33.287Z,18.91
2022-08-17T12:06:07.991Z,18.94
2022-08-17T12:08:43.359Z,18.98
2022-08-17T12:11:57.832Z,18.87
2022-08-17T12:14:20.160Z,18.87
2022-08-17T12:17:39.556Z,18.99
2022-08-17T12:20:15.515Z,18.93
2022-08-17T12:22:54.899Z,19.01
2022-08-17T12:25:32.971Z,18.96
2022-08-17T12:28:06.321Z,19.00
2022-08-17T12:30:34.004Z,19.04
2022-08-17T12:33:00.699Z,19.02
2022-08-17T12:35:33.164Z,18.94
2022-08-17T12:38:01.137Z,18.97
2022-08-17T12:40:33.753Z,19.00
2022-08-17T12:43:19.994Z,18.97
2022-08-17T12:45:56.927Z,18.86
2022-08-17T12:48:25.914Z,18.90
2022-08-17T12:50:59.844Z,18.66
2022-08-17T12:53:30.148Z,18.73
2022-08-17T12:55:58.915Z,18.76
2022-08-17T12:58:30.449Z,18.77
2022-08-17T13:01:02.116Z,18.73
2022-08-17T13:03:36.607Z,18.74
2022-08-17T13:06:11.072Z,18.75
2022-08-17T13:08:48.061Z,18.71
2022-08-17T13:11:14.566Z,18.77
2022-08-17T13:13:43.856Z,18.69
2022-08-17T13:16:14.319Z,18.79
2022-08-17T13:18:42.656Z,18.75
2022-08-17T13:21:18.861Z,18.73
2022-08-17T13:24:11.420Z,18.68
2022-08-17T13:26:45.315Z,18.70
2022-08-17T13:29:26.054Z,18.73
2022-08-17T13:32:16.820Z,18.67
2022-08-17T13:35:11.972Z,18.63
2022-08-17T13:37:40.621Z,18.57
2022-08-17T13:40:08.988Z,18.58
2022-08-17T13:42:51.510Z,18.62
2022-08-17T13:45:35.492Z,18.60
2022-08-17T13:48:13.697Z,18.61
2022-08-17T13:50:59.537Z,18.63
2022-08-17T13:53:31.343Z,18.61
2022-08-17T13:56:03.253Z,18.59
2022-08-17T13:58:35.948Z,18.63
2022-08-17T14:01:52.840Z,18.64
2022-08-17T14:04:23.947Z,18.61
2022-08-17T14:06:58.031Z,18.59
2022-08-17T14:09:41.052Z,18.68
2022-08-17T14:12:12.647Z,18.54
2022-08-17T14:14:39.590Z,18.71
2022-08-17T14:17:06.123Z,18.71
2022-08-17T14:19:35.076Z,18.70
2022-08-17T14:22:02.045Z,18.66
2022-08-17T14:24:35.184Z,18.71
2022-08-17T14:27:03.620Z,18.83
2022-08-17T14:29:31.625Z,18.86
2022-08-17T14:32:03.195Z,18.76
2022-08-17T14:34:29.689Z,18.71
2022-08-17T14:36:56.993Z,18.70
2022-08-17T14:39:23.423Z,18.73
2022-08-17T14:41:50.225Z,18.72
2022-08-17T14:44:17.026Z,18.71
2022-08-17T14:46:44.680Z,18.69
2022-08-17T14:49:12.945Z,18.74
2022-08-17T14:51:43.709Z,18.81
2022-08-17T14:54:11.584Z,18.79
2022-08-17T14:57:00.874Z,18.75
2022-08-17T14:59:44.718Z,18.69
2022-08-17T15:02:11.472Z,18.63
2022-08-17T15:04:41.971Z,18.75
2022-08-17T15:07:11.575Z,18.81
2022-08-17T15:09:37.946Z,18.88
2022-08-17T15:12:06.577Z,18.85
2022-08-17T15:14:35.420Z,18.82
2022-08-17T15:17:03.523Z,18.72
2022-08-17T15:19:30.268Z,18.69
2022-08-17T15:21:56.779Z,18.73
2022-08-17T15:24:23.285Z,18.83
2022-08-17T15:26:49.920Z,18.83
2022-08-17T15:29:16.316Z,18.91
2022-08-17T15:31:43.380Z,18.92
2022-08-17T15:34:09.779Z,19.06
2022-08-17T15:36:36.258Z,19.03
2022-08-17T15:39:03.103Z,19.10
2022-08-17T15:41:30.097Z,19.14
2022-08-17T15:43:56.922Z,19.15
2022-08-17T15:46:25.700Z,19.00
2022-08-17T15:48:58.278Z,19.19
2022-08-17T15:51:30.932Z,19.31
2022-08-17T15:54:22.191Z,19.36
2022-08-17T15:56:49.093Z,19.39
2022-08-17T15:59:15.525Z,19.44
2022-08-17T16:03:14.651Z,19.44
2022-08-17T16:04:31.023Z,19.41
2022-08-17T16:06:59.401Z,19.39
2022-08-17T16:09:25.818Z,19.32
2022-08-17T16:11:55.326Z,19.33
2022-08-17T16:14:22.613Z,19.35
2022-08-17T16:16:50.484Z,19.33
2022-08-17T16:19:17.035Z,19.38
2022-08-17T16:21:43.501Z,19.35
2022-08-17T16:24:13.268Z,19.39
2022-08-17T16:26:40.467Z,19.32
2022-08-17T16:29:07.782Z,19.35
2022-08-17T16:31:35.975Z,19.33
2022-08-17T16:34:17.006Z,19.33
2022-08-17T16:36:54.835Z,19.32
2022-08-17T16:39:28.103Z,19.36
2022-08-17T16:41:56.072Z,19.29
2022-08-17T16:44:22.818Z,19.30
2022-08-17T16:46:50.197Z,19.19
2022-08-17T16:49:35.088Z,19.23
2022-08-17T16:52:03.437Z,19.23
2022-08-17T16:54:30.258Z,19.19
2022-08-17T16:56:56.672Z,19.17
2022-08-17T16:59:31.240Z,19.17
2022-08-17T17:02:12.841Z,19.16
2022-08-17T17:04:45.983Z,19.13
2022-08-17T17:07:49.766Z,19.17
2022-08-17T17:10:20.440Z,19.12
2022-08-17T17:12:59.564Z,19.21
2022-08-17T17:15:45.176Z,19.18
2022-08-17T17:18:13.675Z,19.17
2022-08-17T17:20:47.733Z,19.20
2022-08-17T17:23:23.367Z,19.15
2022-08-17T17:26:03.630Z,19.11
2022-08-17T17:28:35.754Z,19.10
2022-08-17T17:31:20.545Z,19.06
2022-08-17T17:33:56.966Z,19.08
2022-08-17T17:36:31.047Z,18.96
2022-08-17T17:39:05.259Z,18.99
2022-08-17T17:41:49.173Z,19.03
2022-08-17T17:44:20.084Z,19.00
2022-08-17T17:46:54.848Z,18.95
2022-08-17T17:49:21.460Z,19.03
2022-08-17T17:52:11.150Z,19.06
2022-08-17T17:54:52.244Z,19.09
2022-08-17T17:57:26.672Z,19.05
2022-08-17T18:00:00.875Z,19.03
2022-08-17T18:02:52.147Z,19.01
2022-08-17T18:05:28.173Z,19.01
2022-08-17T18:08:11.241Z,18.89
2022-08-17T18:10:58.361Z,18.94
2022-08-17T18:13:43.756Z,18.84
2022-08-17T18:16:13.001Z,18.92
2022-08-17T18:18:46.038Z,18.92
2022-08-17T18:21:46.464Z,18.92
2022-08-17T18:24:14.024Z,18.85
2022-08-17T18:26:44.966Z,18.88
2022-08-17T18:29:35.759Z,18.86
2022-08-17T18:32:22.825Z,18.85
2022-08-17T18:34:53.839Z,18.86
2022-08-17T18:37:35.049Z,18.80
2022-08-17T18:40:16.663Z,18.81
2022-08-17T18:42:58.567Z,18.81
2022-08-17T18:45:48.415Z,18.80
2022-08-17T18:48:28.351Z,18.77
2022-08-17T18:51:01.491Z,18.77
2022-08-17T18:53:41.473Z,18.76
2022-08-17T18:56:31.502Z,18.77
2022-08-17T18:59:09.827Z,18.73
2022-08-17T19:01:53.334Z,18.73
2022-08-17T19:04:40.041Z,18.71
2022-08-17T19:07:24.646Z,18.69
2022-08-17T19:10:05.327Z,18.63
2022-08-17T19:12:40.043Z,18.65
2022-08-17T19:15:12.446Z,18.62
2022-08-17T19:18:05.604Z,18.58
2022-08-17T19:20:44.446Z,18.57
2022-08-17T19:23:27.531Z,18.55
2022-08-17T19:25:58.488Z,18.55
2022-08-17T19:28:29.584Z,18.55
2022-08-17T19:31:04.075Z,18.55
2022-08-17T19:33:31.538Z,18.52
2022-08-17T19:36:09.995Z,18.49
2022-08-17T19:38:48.666Z,18.48
2022-08-17T19:41:24.227Z,18.45
2022-08-17T19:44:06.216Z,18.41
2022-08-17T19:47:00.912Z,18.40
2022-08-17T19:49:56.982Z,18.35
2022-08-17T19:52:36.282Z,18.31
2022-08-17T19:55:23.521Z,18.29
2022-08-17T19:58:10.216Z,18.29
2022-08-17T20:00:46.922Z,18.31
2022-08-17T20:03:50.409Z,18.27
2022-08-17T20:06:18.708Z,18.29
2022-08-17T20:09:15.057Z,18.29
2022-08-17T20:11:46.875Z,18.28
2022-08-17T20:14:18.767Z,18.24
2022-08-17T20:16:46.562Z,18.20
2022-08-17T20:19:22.186Z,18.15
2022-08-17T20:22:09.465Z,18.15
2022-08-17T20:24:38.934Z,18.11
2022-08-17T20:27:16.496Z,18.11
2022-08-17T20:29:55.256Z,18.10
2022-08-17T20:32:26.237Z,18.09
2022-08-17T20:35:20.792Z,18.10
2022-08-17T20:37:53.961Z,18.14
2022-08-17T20:40:25.940Z,18.14
2022-08-17T20:42:52.748Z,18.19
2022-08-17T20:45:22.121Z,18.21
2022-08-17T20:48:18.737Z,18.18
2022-08-17T20:50:44.049Z,18.18
2022-08-17T20:53:15.217Z,18.17
2022-08-17T20:55:52.626Z,18.15
2022-08-17T20:58:21.192Z,18.11
2022-08-17T21:00:56.910Z,18.10
2022-08-17T21:03:23.345Z,18.09
2022-08-17T21:06:00.348Z,18.04
2022-08-17T21:08:30.663Z,17.90
2022-08-17T21:10:58.478Z,17.97
2022-08-17T21:13:40.955Z,17.91
2022-08-17T21:16:24.331Z,17.86
2022-08-17T21:19:17.811Z,17.85
2022-08-17T21:22:12.657Z,17.82
2022-08-17T21:25:03.152Z,17.83
2022-08-17T21:28:08.366Z,17.80
2022-08-17T21:30:37.107Z,17.78
2022-08-17T21:33:18.647Z,17.77
2022-08-17T21:35:53.869Z,17.72
2022-08-17T21:38:50.286Z,17.66
2022-08-17T21:41:29.538Z,17.67
2022-08-17T21:44:06.393Z,17.60
2022-08-17T21:46:39.102Z,17.68
2022-08-17T21:49:13.444Z,17.67
2022-08-17T21:51:51.383Z,17.68
2022-08-17T21:54:20.446Z,17.69
2022-08-17T21:56:48.460Z,17.45
2022-08-17T21:59:28.820Z,17.60
2022-08-17T22:02:18.165Z,17.63
2022-08-17T22:05:00.316Z,17.57
2022-08-17T22:07:50.766Z,17.48
2022-08-17T22:10:41.905Z,17.40
2022-08-17T22:13:19.878Z,17.38
2022-08-17T22:16:15.243Z,17.23
2022-08-17T22:18:42.837Z,17.43
2022-08-17T22:21:09.308Z,17.40
2022-08-17T22:23:58.635Z,17.40
2022-08-17T22:26:47.102Z,17.42
2022-08-17T22:29:57.366Z,17.42
2022-08-17T22:32:45.073Z,17.46
2022-08-17T22:35:35.740Z,17.51
2022-08-17T22:38:25.384Z,17.49
2022-08-17T22:40:54.480Z,17.61
2022-08-17T22:43:26.055Z,17.67
2022-08-17T22:45:55.694Z,17.71
2022-08-17T22:48:27.153Z,17.75
2022-08-17T22:51:12.372Z,17.80
2022-08-17T22:54:05.551Z,17.64
2022-08-17T22:56:50.898Z,17.85
2022-08-17T22:59:55.556Z,17.87
2022-08-17T23:02:29.941Z,17.88
2022-08-17T23:05:15.758Z,17.87
2022-08-17T23:07:44.964Z,17.83
2022-08-17T23:10:13.291Z,17.88
2022-08-17T23:12:40.310Z,17.90
2022-08-17T23:15:16.901Z,17.90
2022-08-17T23:17:45.044Z,17.90
2022-08-17T23:20:14.162Z,17.91
2022-08-17T23:22:51.794Z,17.91
2022-08-17T23:25:25.822Z,17.81
2022-08-17T23:27:52.516Z,17.89
2022-08-17T23:30:19.295Z,17.87
2022-08-17T23:32:53.354Z,17.84
2022-08-17T23:35:20.360Z,17.84
2022-08-17T23:38:07.526Z,17.86
2022-08-17T23:40:34.094Z,17.86
2022-08-17T23:43:00.568Z,17.87
2022-08-17T23:45:31.273Z,17.86
2022-08-17T23:47:57.645Z,17.84
2022-08-17T23:50:24.965Z,17.81
2022-08-17T23:52:56.441Z,17.76
2022-08-17T23:55:22.873Z,17.77
2022-08-17T23:57:50.010Z,17.80
